Ridgeway, WV (25440)

3:45 AM EDT on March 27, 2015 (GMT -0400)
Boyds Crossing | | Change Station
CLOSE
Current Station
Personal Weather Station
Location: Bunker Hill, WV
Elevation: 561 ft
Nearby Weather Stations

Elev 561 ft 39.33 °N, 78.06 °W | Updated 17 seconds ago

Mostly Cloudy
Mostly Cloudy
43.5 °F
Feels Like 39 °F
N
7.2
Wind Variable Wind from NNW
Gusts 7.2 mph

Today
High -- | Low -- °F
--% Chance of Precip.
Yesterday
High -- | Low -- °F
Precip. -- in
7:05 AM 7:30 PM
Waxing Crescent, 50% visible
Pressure 29.80 in
Visibility 7.0 miles
Clouds Scattered Clouds 2400 ft
Overcast 3600 ft
Windchill 39 °F
Dew Point 40 °F
Humidity 86%
Rainfall 0.00 in
Snow Depth Not available.
UV 0 out of 12
Pollen 9.20 out of 12
Air Quality Not available.
Flu Activity Not available.
METAR KMRB 270653Z AUTO 32006KT 7SM -RA SCT024 OVC036 07/03 A2980 RMK AO2 SLP090 P0005 T00720033 TSNO

More Conditions Fewer Conditions

Pressure 29.80 in
Visibility 7.0 miles
Clouds Scattered Clouds 2400 ft
Overcast 3600 ft
Windchill 39 °F
Dew Point 40 °F
Humidity 86%
Rainfall 0.00 in
Snow Depth Not available.
UV 0 out of 12
Pollen 9.20 out of 12
Air Quality Not available.
Flu Activity Not available.
METAR KMRB 270653Z AUTO 32006KT 7SM -RA SCT024 OVC036 07/03 A2980 RMK AO2 SLP090 P0005 T00720033 TSNO

More Conditions Fewer Conditions

10-Day Weather Forecast

Almanac

Astronomy

Mar. 27, 2015 Rise Set
Actual Time
Civil Twilight
Nautical Twilight
Astronomical Twilight
Moon
Length of Visible Light
Length of Day
Tomorrow will be .
, % of the Moon is Illuminated

Today's Extremes

State Highs State Lows

Community

WunderPhotos

Upload Photos

1,808,702 photos uploaded!

WunderBlogs® & News

Nearby

Air Quality

  Air Quality AQ Index Pollutant
Not available.

Snow Depth

Station Depth Elevation

Earthquake Activity

City Distance Mag. Time & Date
Minimum magnitude displayed is 2.5.

Coastal Water Temperatures

Place Temperature

Stations

Nearby Weather Stations

Station Location Temp. Windchill Dew Point Humidity Wind Precip. Elev Updated Type